ENSG/SOG METAR and TAF weather

Enter ICAO airport designator
Station Type Date Time Source
ENSG METAR 2021/01/20 20:50 UTC NOAA

ENSG 202050Z 04010KT 7000 -SHSN FEW/// SCT021 VV032 M01/M04 Q0982 RMK WIND 3806FT 10022KT


Station Type Date Time Source
ENSG Decoded METAR 2021/01/20 20:50 UTC NOAA

Sogndal / Haukasen, Norway (ENSG) 61-09N 007-08E 497M
Jan 20, 2021 - 03:50 PM EST / 2021.01.20 2050 UTC
Wind: from the NE (040 degrees) at 12 MPH (10 KT):0
Visibility: 4 mile(s):0
Sky conditions: obscured
Weather: light snow showers
Temperature: 30 F (-1 C)
Windchill: 19 F (-7 C):1
Dew Point: 24 F (-4 C)
Relative Humidity: 80%
Pressure (altimeter): 29.00 in. Hg (0982 hPa)
ob: ENSG 202050Z 04010KT 7000 -SHSN FEW/// SCT021 VV032 M01/M04 Q0982 RMK WIND 3806FT 10022KT
cycle: 21

Station Type Date Time Source
ENSG TAF UTC NOAA

Error!

Example: see airport list